createdAt,value
2023-04-29T00:02:08.849Z,31.05
2023-04-29T00:04:35.640Z,29.83
2023-04-29T00:07:02.231Z,31.80
2023-04-29T00:09:28.574Z,33.88
2023-04-29T00:11:54.986Z,32.60
2023-04-29T00:14:21.323Z,31.23
2023-04-29T00:16:48.206Z,36.72
2023-04-29T00:19:15.084Z,29.30
2023-04-29T00:21:41.497Z,34.10
2023-04-29T00:24:07.816Z,31.73
2023-04-29T00:26:34.843Z,29.42
2023-04-29T00:29:01.274Z,35.22
2023-04-29T00:31:27.823Z,32.13
2023-04-29T00:33:54.240Z,26.65
2023-04-29T00:36:20.570Z,32.25
2023-04-29T00:38:46.900Z,30.05
2023-04-29T00:41:13.591Z,28.20
2023-04-29T00:43:39.930Z,30.20
2023-04-29T00:46:06.313Z,36.63
2023-04-29T00:48:36.322Z,27.27
2023-04-29T00:51:03.975Z,29.33
2023-04-29T00:53:31.364Z,28.33
2023-04-29T00:55:57.765Z,30.53
2023-04-29T00:58:30.180Z,31.33
2023-04-29T01:00:56.910Z,26.58
2023-04-29T01:03:23.553Z,24.52
2023-04-29T01:06:01.708Z,22.45
2023-04-29T01:08:33.992Z,26.27
2023-04-29T01:11:09.487Z,27.45
2023-04-29T01:13:51.648Z,29.65
2023-04-29T01:16:25.626Z,24.92
2023-04-29T01:18:58.670Z,30.63
2023-04-29T01:21:25.569Z,20.40
2023-04-29T01:23:56.055Z,23.05
2023-04-29T01:26:23.471Z,26.58
2023-04-29T01:29:27.226Z,22.77
2023-04-29T01:32:09.237Z,30.33
2023-04-29T01:34:53.541Z,26.77
2023-04-29T01:37:34.728Z,28.25
2023-04-29T01:40:21.924Z,22.67
2023-04-29T01:43:03.261Z,27.70
2023-04-29T01:45:33.220Z,27.70
2023-04-29T01:48:00.794Z,25.13
2023-04-29T01:50:27.241Z,22.02
2023-04-29T01:52:53.585Z,24.52
2023-04-29T01:55:20.423Z,26.90
2023-04-29T01:57:46.860Z,26.63
2023-04-29T02:00:13.373Z,27.60
2023-04-29T02:02:39.856Z,26.13
2023-04-29T02:05:07.233Z,28.17
2023-04-29T02:07:33.558Z,24.42
2023-04-29T02:09:59.877Z,21.70
2023-04-29T02:12:26.359Z,26.00
2023-04-29T02:14:53.581Z,28.73
2023-04-29T02:17:20.007Z,26.48
2023-04-29T02:19:46.366Z,22.75
2023-04-29T02:22:12.796Z,26.42
2023-04-29T02:24:43.928Z,21.80
2023-04-29T02:27:14.608Z,24.25
2023-04-29T02:29:41.256Z,20.50
2023-04-29T02:32:10.645Z,20.67
2023-04-29T02:34:37.043Z,23.05
2023-04-29T02:37:03.371Z,23.83
2023-04-29T02:39:29.716Z,21.58
2023-04-29T02:41:56.334Z,20.65
2023-04-29T02:44:22.727Z,19.35
2023-04-29T02:46:49.261Z,18.58
2023-04-29T02:49:15.621Z,19.23
2023-04-29T02:51:42.445Z,29.48
2023-04-29T02:54:13.806Z,14.20
2023-04-29T02:56:44.680Z,16.15
2023-04-29T02:59:11.206Z,17.60
2023-04-29T03:01:38.761Z,23.23
2023-04-29T03:04:06.658Z,15.63
2023-04-29T03:06:33.354Z,19.35
2023-04-29T03:08:59.666Z,21.58
2023-04-29T03:11:26.029Z,19.98
2023-04-29T03:13:52.363Z,15.47
2023-04-29T03:16:18.730Z,18.02
2023-04-29T03:18:45.342Z,16.95
2023-04-29T03:21:11.867Z,16.92
2023-04-29T03:23:42.458Z,17.73
2023-04-29T03:26:13.937Z,20.40
2023-04-29T03:28:41.803Z,19.75
2023-04-29T03:31:08.352Z,18.15
2023-04-29T03:33:34.948Z,15.35
2023-04-29T03:36:01.538Z,17.02
2023-04-29T03:38:28.001Z,16.57
2023-04-29T03:40:55.842Z,22.33
2023-04-29T03:43:27.965Z,19.00
2023-04-29T03:45:54.648Z,19.30
2023-04-29T03:48:21.368Z,17.52
2023-04-29T03:50:48.800Z,17.20
2023-04-29T03:53:15.358Z,19.30
2023-04-29T03:55:41.688Z,16.92
2023-04-29T03:58:08.329Z,17.00
2023-04-29T04:00:37.236Z,18.38
2023-04-29T04:03:05.846Z,19.63
2023-04-29T04:05:34.620Z,18.02
2023-04-29T04:08:01.199Z,17.88
2023-04-29T04:10:28.911Z,17.08
2023-04-29T04:12:55.419Z,20.23
2023-04-29T04:15:22.621Z,19.00
2023-04-29T04:17:49.153Z,14.98
2023-04-29T04:20:16.073Z,17.45
2023-04-29T04:22:57.692Z,19.92
2023-04-29T04:25:27.453Z,17.10
2023-04-29T04:27:56.030Z,15.90
2023-04-29T04:30:22.407Z,13.80
2023-04-29T04:32:51.076Z,10.35
2023-04-29T04:35:17.819Z,16.35
2023-04-29T04:37:45.994Z,14.10
2023-04-29T04:40:14.602Z,11.67
2023-04-29T04:42:45.992Z,16.23
2023-04-29T04:45:13.688Z,12.80
2023-04-29T04:47:41.341Z,15.98
2023-04-29T04:50:08.942Z,18.15
2023-04-29T04:52:35.478Z,17.33
2023-04-29T04:55:02.108Z,15.02
2023-04-29T04:57:28.551Z,15.55
2023-04-29T04:59:54.912Z,13.38
2023-04-29T05:02:21.426Z,15.13
2023-04-29T05:04:51.420Z,16.70
2023-04-29T05:07:22.844Z,15.07
2023-04-29T05:09:49.342Z,12.45
2023-04-29T05:12:16.398Z,17.00
2023-04-29T05:14:43.143Z,15.73
2023-04-29T05:17:10.773Z,15.27
2023-04-29T05:19:37.137Z,14.55
2023-04-29T05:22:16.407Z,15.65
2023-04-29T05:24:47.705Z,19.77
2023-04-29T05:27:19.122Z,17.27
2023-04-29T05:29:45.541Z,13.23
2023-04-29T05:32:16.682Z,13.15
2023-04-29T05:34:46.272Z,15.60
2023-04-29T05:37:13.396Z,12.15
2023-04-29T05:39:39.775Z,14.75
2023-04-29T05:42:07.886Z,15.23
2023-04-29T05:44:37.933Z,15.82
2023-04-29T05:47:04.687Z,13.73
2023-04-29T05:49:31.018Z,15.13
2023-04-29T05:51:57.375Z,13.68
2023-04-29T05:54:23.785Z,14.87
2023-04-29T05:56:50.130Z,14.68
2023-04-29T05:59:16.571Z,18.45
2023-04-29T06:01:42.982Z,17.85
2023-04-29T06:04:12.145Z,16.83
2023-04-29T06:06:39.036Z,15.93
2023-04-29T06:09:10.788Z,11.50
2023-04-29T06:11:44.235Z,15.23
2023-04-29T06:14:10.977Z,16.33
2023-04-29T06:16:37.809Z,19.15
2023-04-29T06:19:04.256Z,14.90
2023-04-29T06:21:32.019Z,16.77
2023-04-29T06:23:58.542Z,15.15
2023-04-29T06:26:24.992Z,17.52
2023-04-29T06:28:51.414Z,16.33
2023-04-29T06:31:17.878Z,18.27
2023-04-29T06:33:44.255Z,20.83
2023-04-29T06:36:10.632Z,16.15
2023-04-29T06:38:36.962Z,16.00
2023-04-29T06:41:04.406Z,15.20
2023-04-29T06:43:32.372Z,14.50
2023-04-29T06:45:58.766Z,16.67
2023-04-29T06:48:28.615Z,15.35
2023-04-29T06:50:57.235Z,16.50
2023-04-29T06:53:24.062Z,15.45
2023-04-29T06:55:50.956Z,16.83
2023-04-29T06:58:18.718Z,18.88
2023-04-29T07:00:50.390Z,19.55
2023-04-29T07:03:18.546Z,16.33
2023-04-29T07:05:45.788Z,17.25
2023-04-29T07:08:13.235Z,13.53
2023-04-29T07:10:40.300Z,13.55
2023-04-29T07:13:06.678Z,14.90
2023-04-29T07:15:36.970Z,16.33
2023-04-29T07:18:05.326Z,16.23
2023-04-29T07:20:32.154Z,13.00
2023-04-29T07:22:59.115Z,14.30
2023-04-29T07:25:29.167Z,13.00
2023-04-29T07:27:56.365Z,10.77
2023-04-29T07:30:23.358Z,15.57
2023-04-29T07:32:50.096Z,14.60
2023-04-29T07:35:16.506Z,12.75
2023-04-29T07:37:44.292Z,13.63
2023-04-29T07:40:11.301Z,12.05
2023-04-29T07:42:37.712Z,12.80
2023-04-29T07:45:04.416Z,11.97
2023-04-29T07:47:31.073Z,10.20
2023-04-29T07:49:57.472Z,10.07
2023-04-29T07:52:23.801Z,8.80
2023-04-29T07:54:50.301Z,10.68
2023-04-29T07:57:16.807Z,11.23
2023-04-29T07:59:43.141Z,9.65
2023-04-29T08:02:09.576Z,10.48
2023-04-29T08:04:39.878Z,11.90
2023-04-29T08:07:06.370Z,8.65
2023-04-29T08:09:33.164Z,11.97
2023-04-29T08:11:59.484Z,8.65
2023-04-29T08:14:26.190Z,9.63
2023-04-29T08:16:55.611Z,7.32
2023-04-29T08:19:22.362Z,7.55
2023-04-29T08:21:48.841Z,8.13
2023-04-29T08:24:15.494Z,7.97
2023-04-29T08:26:42.343Z,9.98
2023-04-29T08:29:08.992Z,9.75
2023-04-29T08:31:36.667Z,8.57
2023-04-29T08:34:03.025Z,6.83
2023-04-29T08:36:29.997Z,8.07
2023-04-29T08:38:56.549Z,9.30
2023-04-29T08:41:23.253Z,10.55
2023-04-29T08:43:49.569Z,6.70
2023-04-29T08:46:16.735Z,9.77
2023-04-29T08:48:45.502Z,6.85
2023-04-29T08:51:14.368Z,7.43
2023-04-29T08:53:41.027Z,9.75
2023-04-29T08:56:17.694Z,7.68
2023-04-29T08:58:48.348Z,7.73
2023-04-29T09:01:15.456Z,6.50
2023-04-29T09:04:04.152Z,8.13
2023-04-29T09:06:33.153Z,8.02
2023-04-29T09:09:01.973Z,7.88
2023-04-29T09:11:29.950Z,7.47
2023-04-29T09:14:04.438Z,11.57
2023-04-29T09:16:31.097Z,8.90
2023-04-29T09:18:57.627Z,7.28
2023-04-29T09:21:25.431Z,8.38
2023-04-29T09:23:53.748Z,7.60
2023-04-29T09:26:20.966Z,14.00
2023-04-29T09:28:47.874Z,8.80
2023-04-29T09:31:14.383Z,6.10
2023-04-29T09:33:55.051Z,8.75
2023-04-29T09:36:38.723Z,8.43
2023-04-29T09:39:10.949Z,8.00
2023-04-29T09:41:42.118Z,6.40
2023-04-29T09:44:09.813Z,6.00
2023-04-29T09:46:37.043Z,7.70
2023-04-29T09:49:06.848Z,6.73
2023-04-29T09:51:33.516Z,8.45
2023-04-29T09:54:01.667Z,7.57
2023-04-29T09:56:30.716Z,7.65
2023-04-29T09:59:08.220Z,5.78
2023-04-29T10:01:35.003Z,7.70
2023-04-29T10:04:03.056Z,5.10
2023-04-29T10:06:29.645Z,8.07
2023-04-29T10:08:56.143Z,7.63
2023-04-29T10:11:22.606Z,3.78
2023-04-29T10:13:52.102Z,6.57
2023-04-29T10:16:34.494Z,6.78
2023-04-29T10:19:04.308Z,6.07
2023-04-29T10:21:31.668Z,6.68
2023-04-29T10:23:59.382Z,9.43
2023-04-29T10:26:29.825Z,9.57
2023-04-29T10:28:56.971Z,6.28
2023-04-29T10:31:26.365Z,5.07
2023-04-29T10:33:56.461Z,5.32
2023-04-29T10:36:25.828Z,6.40
2023-04-29T10:38:55.855Z,7.97
2023-04-29T10:41:26.800Z,4.90
2023-04-29T10:43:53.322Z,4.82
2023-04-29T10:46:22.652Z,4.97
2023-04-29T10:48:57.545Z,6.38
2023-04-29T10:51:35.550Z,9.70
2023-04-29T10:54:06.380Z,7.05
2023-04-29T10:56:45.453Z,3.58
2023-04-29T10:59:17.125Z,4.07
2023-04-29T11:01:53.398Z,5.25
2023-04-29T11:04:21.801Z,5.30
2023-04-29T11:06:56.180Z,4.38
2023-04-29T11:09:30.876Z,5.85
2023-04-29T11:12:05.809Z,3.90
2023-04-29T11:14:41.312Z,6.43
2023-04-29T11:17:10.364Z,7.83
2023-04-29T11:19:45.387Z,6.38
2023-04-29T11:22:14.951Z,5.00
2023-04-29T11:25:00.511Z,4.43
2023-04-29T11:27:31.996Z,6.35
2023-04-29T11:29:59.455Z,6.60
2023-04-29T11:32:30.492Z,3.70
2023-04-29T11:35:14.850Z,3.70
2023-04-29T11:37:42.876Z,6.50
2023-04-29T11:40:11.440Z,4.32
2023-04-29T11:42:43.591Z,4.80
2023-04-29T11:45:10.462Z,5.32
2023-04-29T11:47:37.200Z,5.85
2023-04-29T11:50:05.917Z,5.45
2023-04-29T11:52:33.137Z,7.07
2023-04-29T11:55:00.273Z,6.20
2023-04-29T11:57:26.890Z,5.95
2023-04-29T11:59:53.733Z,7.43
2023-04-29T12:02:23.810Z,8.45
2023-04-29T12:04:50.913Z,4.95
2023-04-29T12:07:17.898Z,5.43
2023-04-29T12:09:45.285Z,5.07
2023-04-29T12:12:12.534Z,6.95
2023-04-29T12:14:40.384Z,6.38
2023-04-29T12:17:07.365Z,6.78
2023-04-29T12:19:34.250Z,7.70
2023-04-29T12:22:03.168Z,5.18
2023-04-29T12:24:33.906Z,5.72
2023-04-29T12:27:00.590Z,5.68
2023-04-29T12:29:26.960Z,5.72
2023-04-29T12:31:53.420Z,6.77
2023-04-29T12:34:30.356Z,6.35
2023-04-29T12:37:00.034Z,6.60
2023-04-29T12:39:28.376Z,5.63
2023-04-29T12:41:57.789Z,8.10
2023-04-29T12:44:26.452Z,5.50
2023-04-29T12:46:58.367Z,4.22
2023-04-29T12:49:25.024Z,7.30
2023-04-29T12:51:51.522Z,5.63
2023-04-29T12:54:18.125Z,5.68
2023-04-29T12:56:44.510Z,3.97
2023-04-29T12:59:12.155Z,6.15
2023-04-29T13:01:39.490Z,6.05
2023-04-29T13:04:08.861Z,6.60
2023-04-29T13:06:39.415Z,5.50
2023-04-29T13:09:07.471Z,6.53
2023-04-29T13:11:34.881Z,7.75
2023-04-29T13:14:01.607Z,6.90
2023-04-29T13:16:27.991Z,6.50
2023-04-29T13:19:12.385Z,5.03
2023-04-29T13:21:40.895Z,7.53
2023-04-29T13:24:07.563Z,7.72
2023-04-29T13:26:33.884Z,8.23
2023-04-29T13:29:00.211Z,4.47
2023-04-29T13:31:32.066Z,7.47
2023-04-29T13:33:58.638Z,6.60
2023-04-29T13:36:28.287Z,6.43
2023-04-29T13:38:55.693Z,5.63
2023-04-29T13:41:22.698Z,3.70
2023-04-29T13:43:50.766Z,8.23
2023-04-29T13:46:20.929Z,6.07
2023-04-29T13:52:01.476Z,9.02
2023-04-29T13:54:37.452Z,5.43
2023-04-29T14:04:19.028Z,5.80
2023-04-29T14:06:45.851Z,8.25
2023-04-29T14:09:12.200Z,5.85
2023-04-29T14:11:38.566Z,7.27
2023-04-29T14:14:04.957Z,6.65
2023-04-29T14:16:32.152Z,5.47
2023-04-29T14:19:00.094Z,5.63
2023-04-29T14:21:27.968Z,8.38
2023-04-29T14:23:54.297Z,6.80
2023-04-29T14:26:27.966Z,6.43
2023-04-29T14:28:59.298Z,6.30
2023-04-29T14:31:38.665Z,6.07
2023-04-29T14:34:05.680Z,8.30
2023-04-29T14:36:33.412Z,4.63
2023-04-29T14:39:00.570Z,6.22
2023-04-29T14:41:27.688Z,7.85
2023-04-29T14:43:54.057Z,4.57
2023-04-29T14:46:22.159Z,5.38
2023-04-29T14:48:49.353Z,9.03
2023-04-29T14:51:15.875Z,4.53
2023-04-29T14:53:42.906Z,4.00
2023-04-29T14:56:09.294Z,5.72
2023-04-29T14:58:35.637Z,7.05
2023-04-29T15:01:01.957Z,5.33
2023-04-29T15:03:28.451Z,4.50
2023-04-29T15:05:55.098Z,5.63
2023-04-29T15:08:21.678Z,6.18
2023-04-29T15:10:48.137Z,4.78
2023-04-29T15:13:14.764Z,4.03
2023-04-29T15:15:41.402Z,5.88
2023-04-29T15:18:08.813Z,4.60
2023-04-29T15:20:36.676Z,4.80
2023-04-29T15:23:03.861Z,7.43
2023-04-29T15:25:30.890Z,6.03
2023-04-29T15:27:58.970Z,3.70
2023-04-29T15:30:28.375Z,4.32
2023-04-29T15:32:55.384Z,6.78
2023-04-29T15:35:21.935Z,3.38
2023-04-29T15:37:48.460Z,9.07
2023-04-29T15:40:15.518Z,6.88
2023-04-29T15:42:41.885Z,7.10
2023-04-29T15:45:08.944Z,5.40
2023-04-29T15:47:35.905Z,3.15
2023-04-29T15:50:02.396Z,6.60
2023-04-29T15:52:28.772Z,3.92
2023-04-29T15:54:55.146Z,4.95
2023-04-29T15:57:21.535Z,6.80
2023-04-29T15:59:47.861Z,4.32
2023-04-29T16:02:15.251Z,4.87
2023-04-29T16:04:41.701Z,4.78
2023-04-29T16:07:08.219Z,5.40
2023-04-29T16:09:35.426Z,3.67
2023-04-29T16:12:04.591Z,4.35
2023-04-29T16:14:31.288Z,4.23
2023-04-29T16:16:57.764Z,5.05
2023-04-29T16:19:24.301Z,5.05
2023-04-29T16:21:51.047Z,8.75
2023-04-29T16:24:17.706Z,5.47
2023-04-29T16:26:44.155Z,4.87
2023-04-29T16:29:12.539Z,4.47
2023-04-29T16:31:39.689Z,3.72
2023-04-29T16:34:06.075Z,5.22
2023-04-29T16:36:32.729Z,3.03
2023-04-29T16:38:59.122Z,2.70
2023-04-29T16:41:26.125Z,3.45
2023-04-29T16:43:53.882Z,2.75
2023-04-29T16:46:20.584Z,1.92
2023-04-29T16:48:47.130Z,2.38
2023-04-29T16:51:13.896Z,1.20
2023-04-29T16:53:40.303Z,1.25
2023-04-29T16:56:06.672Z,1.30
2023-04-29T16:58:33.186Z,1.77
2023-04-29T17:00:59.761Z,1.35
2023-04-29T17:03:26.413Z,2.63
2023-04-29T17:05:53.215Z,1.48
2023-04-29T17:08:19.629Z,1.67
2023-04-29T17:10:46.011Z,0.70
2023-04-29T17:13:12.376Z,1.25
2023-04-29T17:15:38.732Z,1.57
2023-04-29T17:18:05.137Z,0.82
2023-04-29T17:20:31.540Z,0.82
2023-04-29T17:22:57.884Z,2.95
2023-04-29T17:25:24.214Z,1.05
2023-04-29T17:27:50.579Z,2.97
2023-04-29T17:30:16.938Z,1.58
2023-04-29T17:32:44.291Z,1.10
2023-04-29T17:35:11.240Z,2.00
2023-04-29T17:37:37.974Z,2.83
2023-04-29T17:40:04.859Z,1.07
2023-04-29T17:42:31.572Z,2.72
2023-04-29T17:44:57.950Z,2.22
2023-04-29T17:47:24.399Z,2.67
2023-04-29T17:49:51.905Z,2.75
2023-04-29T17:52:21.217Z,1.97
2023-04-29T17:54:48.626Z,1.05
2023-04-29T17:57:15.035Z,1.90
2023-04-29T17:59:41.438Z,3.15
2023-04-29T18:02:07.750Z,0.85
2023-04-29T18:04:34.310Z,1.60
2023-04-29T18:07:01.692Z,2.70
2023-04-29T18:09:28.084Z,3.15
2023-04-29T18:11:54.405Z,0.85
2023-04-29T18:14:20.768Z,2.25
2023-04-29T18:16:47.148Z,1.97
2023-04-29T18:19:13.563Z,1.02
2023-04-29T18:21:39.899Z,1.90
2023-04-29T18:24:06.730Z,1.17
2023-04-29T18:26:33.058Z,1.95
2023-04-29T18:28:59.426Z,0.93
2023-04-29T18:31:26.344Z,2.22
2023-04-29T18:33:52.824Z,1.95
2023-04-29T18:36:21.377Z,1.35
2023-04-29T18:38:47.814Z,2.35
2023-04-29T18:41:14.377Z,2.30
2023-04-29T18:43:41.086Z,2.50
2023-04-29T18:46:08.017Z,1.42
2023-04-29T18:48:35.909Z,1.40
2023-04-29T18:51:04.303Z,0.95
2023-04-29T18:53:31.669Z,1.43
2023-04-29T18:55:58.201Z,1.55
2023-04-29T18:58:26.638Z,1.90
2023-04-29T19:00:53.499Z,0.98
2023-04-29T19:03:20.422Z,1.58
2023-04-29T19:05:47.973Z,2.23
2023-04-29T19:08:16.307Z,1.40
2023-04-29T19:10:44.012Z,1.77
2023-04-29T19:13:11.142Z,0.93
2023-04-29T19:15:37.646Z,2.50
2023-04-29T19:18:04.822Z,1.80
2023-04-29T19:20:32.430Z,2.45
2023-04-29T19:22:58.761Z,3.28
2023-04-29T19:25:26.053Z,1.48
2023-04-29T19:27:53.213Z,1.05
2023-04-29T19:30:19.763Z,1.80
2023-04-29T19:32:46.899Z,4.95
2023-04-29T19:35:13.489Z,3.33
2023-04-29T19:37:40.367Z,3.10
2023-04-29T19:40:10.547Z,3.83
2023-04-29T19:42:37.858Z,1.73
2023-04-29T19:45:07.430Z,4.88
2023-04-29T19:47:34.626Z,3.25
2023-04-29T19:50:01.175Z,2.83
2023-04-29T19:52:27.672Z,3.08
2023-04-29T19:54:53.988Z,3.10
2023-04-29T19:57:20.386Z,4.60
2023-04-29T19:59:46.745Z,3.40
2023-04-29T20:02:13.462Z,3.40
2023-04-29T20:04:39.956Z,5.05
2023-04-29T20:07:06.302Z,4.53
2023-04-29T20:09:32.663Z,3.58
2023-04-29T20:11:59.016Z,3.25
2023-04-29T20:14:25.714Z,6.35
2023-04-29T20:16:53.144Z,5.10
2023-04-29T20:19:19.652Z,6.57
2023-04-29T20:21:45.983Z,4.30
2023-04-29T20:24:12.335Z,6.28
2023-04-29T20:26:38.693Z,6.47
2023-04-29T20:29:05.240Z,6.90
2023-04-29T20:31:31.946Z,5.43
2023-04-29T20:33:58.326Z,6.65
2023-04-29T20:36:24.927Z,5.72
2023-04-29T20:38:52.126Z,5.88
2023-04-29T20:41:21.264Z,5.15
2023-04-29T20:43:47.566Z,7.60
2023-04-29T20:46:13.942Z,6.13
2023-04-29T20:48:40.534Z,7.10
2023-04-29T20:51:06.891Z,5.78
2023-04-29T20:53:33.217Z,6.72
2023-04-29T20:55:59.544Z,5.83
2023-04-29T20:58:25.869Z,6.30
2023-04-29T21:00:52.220Z,7.90
2023-04-29T21:03:20.708Z,8.30
2023-04-29T21:05:47.047Z,6.53
2023-04-29T21:08:13.409Z,9.40
2023-04-29T21:10:39.793Z,7.60
2023-04-29T21:13:06.144Z,11.75
2023-04-29T21:15:32.602Z,8.77
2023-04-29T21:17:59.064Z,10.68
2023-04-29T21:20:25.714Z,8.93
2023-04-29T21:22:52.251Z,6.25
2023-04-29T21:25:19.152Z,6.32
2023-04-29T21:27:45.563Z,10.57
2023-04-29T21:30:12.150Z,6.85
2023-04-29T21:32:38.759Z,7.67
2023-04-29T21:35:05.482Z,6.80
2023-04-29T21:37:31.924Z,9.13
2023-04-29T21:40:00.153Z,8.55
2023-04-29T21:42:26.853Z,8.85
2023-04-29T21:44:55.142Z,13.50
2023-04-29T21:47:21.642Z,11.15
2023-04-29T21:49:48.176Z,8.07
2023-04-29T21:52:14.547Z,8.52
2023-04-29T21:54:40.950Z,7.00
2023-04-29T21:57:07.333Z,7.30
2023-04-29T21:59:34.672Z,8.88
2023-04-29T22:02:01.486Z,11.50
2023-04-29T22:04:28.194Z,8.50
2023-04-29T22:06:55.891Z,11.38
2023-04-29T22:09:22.833Z,11.53
2023-04-29T22:11:49.337Z,6.03
2023-04-29T22:14:15.860Z,13.88
2023-04-29T22:16:42.400Z,13.52
2023-04-29T22:19:08.814Z,8.27
2023-04-29T22:21:35.228Z,8.70
2023-04-29T22:24:01.569Z,10.55
2023-04-29T22:26:27.890Z,7.05
2023-04-29T22:28:54.890Z,9.40
2023-04-29T22:31:21.304Z,11.48
2023-04-29T22:33:47.699Z,8.37
2023-04-29T22:36:14.018Z,7.15
2023-04-29T22:38:40.362Z,9.60
2023-04-29T22:41:09.351Z,7.72
2023-04-29T22:43:36.058Z,11.98
2023-04-29T22:46:02.593Z,9.83
2023-04-29T22:48:29.390Z,11.32
2023-04-29T22:50:59.286Z,8.60
2023-04-29T22:53:25.741Z,7.82
2023-04-29T22:55:53.011Z,7.00
2023-04-29T22:58:20.500Z,9.63
2023-04-29T23:00:51.410Z,7.47
2023-04-29T23:03:18.048Z,10.48
2023-04-29T23:05:44.354Z,8.75
2023-04-29T23:08:10.718Z,7.07
2023-04-29T23:10:37.064Z,7.77
2023-04-29T23:13:03.492Z,10.65
2023-04-29T23:15:30.545Z,7.70
2023-04-29T23:17:58.096Z,8.13
2023-04-29T23:20:24.843Z,8.07
2023-04-29T23:22:51.310Z,9.23
2023-04-29T23:25:17.689Z,7.70
2023-04-29T23:27:44.018Z,6.53
2023-04-29T23:30:10.635Z,9.95
2023-04-29T23:32:37.017Z,4.47
2023-04-29T23:35:03.503Z,5.53
2023-04-29T23:37:29.948Z,9.32
2023-04-29T23:39:57.178Z,6.65
2023-04-29T23:42:23.900Z,7.88
2023-04-29T23:44:50.836Z,7.25
2023-04-29T23:47:17.668Z,8.60
2023-04-29T23:49:43.992Z,8.35
2023-04-29T23:52:10.407Z,5.45
2023-04-29T23:54:36.812Z,6.68
2023-04-29T23:57:03.248Z,5.55
2023-04-29T23:59:29.676Z,8.00
